createdAt,value
2019-05-12T00:01:21.033Z,83.56
2019-05-12T00:04:24.833Z,84.11
2019-05-12T00:07:28.724Z,84.19
2019-05-12T00:10:32.580Z,84.61
2019-05-12T00:13:38.327Z,84.67
2019-05-12T00:16:42.064Z,84.67
2019-05-12T00:19:47.940Z,84.94
2019-05-12T00:22:54.773Z,85.27
2019-05-12T00:25:58.979Z,85.41
2019-05-12T00:29:02.812Z,85.53
2019-05-12T00:32:08.577Z,85.74
2019-05-12T00:35:12.242Z,85.58
2019-05-12T00:38:17.711Z,85.48
2019-05-12T00:41:21.636Z,85.42
2019-05-12T00:44:25.618Z,85.58
2019-05-12T00:47:29.451Z,86.00
2019-05-12T00:50:33.347Z,86.15
2019-05-12T00:53:43.146Z,86.38
2019-05-12T00:56:42.882Z,86.96
2019-05-12T00:59:47.812Z,86.84
2019-05-12T01:02:51.802Z,86.91
2019-05-12T01:05:57.712Z,87.19
2019-05-12T01:09:01.379Z,86.95
2019-05-12T01:12:07.796Z,87.15
2019-05-12T01:15:11.371Z,87.30
2019-05-12T01:18:15.265Z,87.35
2019-05-12T01:21:19.125Z,87.36
2019-05-12T01:24:22.938Z,86.93
2019-05-12T01:27:28.738Z,87.02
2019-05-12T01:30:32.449Z,87.03
2019-05-12T01:33:38.117Z,87.33
2019-05-12T01:36:42.135Z,87.30
2019-05-12T01:39:45.965Z,87.20
2019-05-12T01:42:49.884Z,87.20
2019-05-12T01:45:54.331Z,87.63
2019-05-12T01:48:59.094Z,87.59
2019-05-12T01:52:03.545Z,87.63
2019-05-12T01:55:09.743Z,87.66
2019-05-12T01:58:14.240Z,87.84
2019-05-12T02:01:18.542Z,87.88
2019-05-12T02:04:22.473Z,87.59
2019-05-12T02:07:28.015Z,87.65
2019-05-12T02:10:32.656Z,87.70
2019-05-12T02:13:38.073Z,87.95
2019-05-12T02:16:42.797Z,87.98
2019-05-12T02:19:48.054Z,88.07
2019-05-12T02:22:52.643Z,88.22
2019-05-12T02:25:58.535Z,88.37
2019-05-12T02:29:02.151Z,88.30
2019-05-12T02:32:06.225Z,88.21
2019-05-12T02:35:10.975Z,88.46
2019-05-12T02:38:16.231Z,88.50
2019-05-12T02:41:20.581Z,88.63
2019-05-12T02:44:25.029Z,88.64
2019-05-12T02:47:28.909Z,88.46
2019-05-12T02:50:37.753Z,88.62
2019-05-12T02:53:42.766Z,88.92
2019-05-12T02:56:50.492Z,88.97
2019-05-12T02:59:56.143Z,88.94
2019-05-12T03:03:05.390Z,88.89
2019-05-12T03:06:10.489Z,88.78
2019-05-12T03:09:15.246Z,89.02
2019-05-12T03:12:19.246Z,89.08
2019-05-12T03:15:25.033Z,89.32
2019-05-12T03:18:29.891Z,89.17
2019-05-12T03:21:35.235Z,89.29
2019-05-12T03:24:39.800Z,89.58
2019-05-12T03:27:44.554Z,89.64
2019-05-12T03:30:49.444Z,89.76
2019-05-12T03:33:59.679Z,89.86
2019-05-12T03:36:59.966Z,89.12
2019-05-12T03:40:05.430Z,89.38
2019-05-12T03:43:10.445Z,89.17
2019-05-12T03:46:15.397Z,89.25
2019-05-12T03:49:19.457Z,89.15
2019-05-12T03:52:24.378Z,89.44
2019-05-12T03:55:35.843Z,89.95
2019-05-12T03:58:35.301Z,89.66
2019-05-12T04:01:39.521Z,89.29
2019-05-12T04:04:45.325Z,89.19
2019-05-12T04:07:49.416Z,89.04
2019-05-12T04:10:54.804Z,89.19
2019-05-12T04:13:59.034Z,88.88
2019-05-12T04:17:04.757Z,88.41
2019-05-12T04:20:09.125Z,88.60
2019-05-12T04:23:15.314Z,88.60
2019-05-12T04:26:25.081Z,89.05
2019-05-12T04:29:27.514Z,88.68
2019-05-12T04:32:31.450Z,88.52
2019-05-12T04:35:36.023Z,89.13
2019-05-12T04:38:40.090Z,89.36
2019-05-12T04:41:44.717Z,88.86
2019-05-12T04:44:48.853Z,89.06
2019-05-12T04:47:55.218Z,89.36
2019-05-12T04:50:58.384Z,88.94
2019-05-12T04:54:05.337Z,88.69
2019-05-12T04:57:07.916Z,88.09
2019-05-12T05:00:15.397Z,88.42
2019-05-12T05:03:17.876Z,88.17
2019-05-12T05:06:21.704Z,87.48
2019-05-12T05:09:25.602Z,86.91
2019-05-12T05:12:29.422Z,86.74
2019-05-12T05:15:34.686Z,86.40
2019-05-12T05:18:40.788Z,87.17
2019-05-12T05:21:44.625Z,87.07
2019-05-12T05:24:48.558Z,86.34
2019-05-12T05:27:53.301Z,85.77
2019-05-12T05:30:57.262Z,85.89
2019-05-12T05:34:01.100Z,84.23
2019-05-12T05:37:06.088Z,85.09
2019-05-12T05:40:10.889Z,84.79
2019-05-12T05:43:18.432Z,85.17
2019-05-12T05:46:20.508Z,85.07
2019-05-12T05:49:24.347Z,83.80
2019-05-12T05:52:33.095Z,83.24
2019-05-12T05:55:34.562Z,82.00
2019-05-12T05:58:40.380Z,82.37
2019-05-12T06:01:47.002Z,82.29
2019-05-12T06:04:50.890Z,82.19
2019-05-12T06:07:55.170Z,81.92
2019-05-12T06:10:58.994Z,81.61
2019-05-12T06:14:11.098Z,80.90
2019-05-12T06:17:08.519Z,80.05
2019-05-12T06:20:13.434Z,79.58
2019-05-12T06:23:17.533Z,79.07
2019-05-12T06:26:30.899Z,78.81
2019-05-12T06:29:27.106Z,78.21
2019-05-12T06:32:30.997Z,78.81
2019-05-12T06:35:40.656Z,78.70
2019-05-12T06:38:40.706Z,77.33
2019-05-12T06:41:44.603Z,76.93
2019-05-12T06:44:48.949Z,77.34
2019-05-12T06:47:56.104Z,75.18
2019-05-12T06:50:59.777Z,76.05
2019-05-12T06:54:07.391Z,74.54
2019-05-12T06:57:20.925Z,73.55
2019-05-12T07:00:15.039Z,73.95
2019-05-12T07:03:19.557Z,73.79
2019-05-12T07:06:24.867Z,73.61
2019-05-12T07:09:32.434Z,70.86
2019-05-12T07:12:43.546Z,69.65
2019-05-12T07:15:40.725Z,68.55
2019-05-12T07:18:46.409Z,64.87
2019-05-12T07:21:50.594Z,65.12
2019-05-12T07:24:55.815Z,65.71
2019-05-12T07:28:01.551Z,65.88
2019-05-12T07:31:05.363Z,64.06
2019-05-12T07:34:09.300Z,65.20
2019-05-12T07:37:15.264Z,63.08
2019-05-12T07:40:25.777Z,63.04
2019-05-12T07:43:27.536Z,63.67
2019-05-12T07:46:31.445Z,65.23
2019-05-12T07:49:38.519Z,64.76
2019-05-12T07:52:40.818Z,64.02
2019-05-12T07:55:49.182Z,63.23
2019-05-12T07:58:56.506Z,63.02
2019-05-12T08:01:56.240Z,63.28
2019-05-12T08:05:00.325Z,60.50
2019-05-12T08:08:10.868Z,61.65
2019-05-12T08:11:09.677Z,61.10
2019-05-12T08:14:24.745Z,61.44
2019-05-12T08:17:19.715Z,60.55
2019-05-12T08:20:23.980Z,60.32
2019-05-12T08:23:27.878Z,60.82
2019-05-12T08:26:33.490Z,62.41
2019-05-12T08:29:37.317Z,62.40
2019-05-12T08:32:41.257Z,59.60
2019-05-12T08:35:45.278Z,60.82
2019-05-12T08:38:49.102Z,59.96
2019-05-12T08:41:53.540Z,60.05
2019-05-12T08:44:57.584Z,58.02
2019-05-12T08:48:03.675Z,57.06
2019-05-12T08:51:13.923Z,58.93
2019-05-12T08:54:14.173Z,58.74
2019-05-12T08:57:18.364Z,59.07
2019-05-12T09:00:39.546Z,57.20
2019-05-12T09:03:44.299Z,58.12
2019-05-12T09:06:50.092Z,59.11
2019-05-12T09:09:54.340Z,59.55
2019-05-12T09:12:58.352Z,57.43
2019-05-12T09:16:04.280Z,57.44
2019-05-12T09:19:10.223Z,56.86
2019-05-12T09:22:18.482Z,57.24
2019-05-12T09:25:19.497Z,59.21
2019-05-12T09:28:23.987Z,56.58
2019-05-12T09:31:29.449Z,55.88
2019-05-12T09:34:33.745Z,56.33
2019-05-12T09:37:40.304Z,55.53
2019-05-12T09:40:43.884Z,58.13
2019-05-12T09:43:50.446Z,53.36
2019-05-12T09:46:53.580Z,55.53
2019-05-12T09:49:57.364Z,55.61
2019-05-12T09:53:09.720Z,55.87
2019-05-12T09:56:07.134Z,54.48
2019-05-12T09:59:19.013Z,53.94
2019-05-12T10:02:20.735Z,54.73
2019-05-12T10:05:23.184Z,51.71
2019-05-12T10:08:29.422Z,52.91
2019-05-12T10:11:32.622Z,55.10
2019-05-12T10:14:40.749Z,51.61
2019-05-12T10:17:43.398Z,51.96
2019-05-12T10:20:47.420Z,54.78
2019-05-12T10:23:56.411Z,53.35
2019-05-12T10:26:56.903Z,54.25
2019-05-12T10:30:05.611Z,56.20
2019-05-12T10:33:06.329Z,53.46
2019-05-12T10:36:10.157Z,52.21
2019-05-12T10:39:14.129Z,54.33
2019-05-12T10:42:17.968Z,55.26
2019-05-12T10:45:24.413Z,54.34
2019-05-12T10:48:28.244Z,55.21
2019-05-12T10:51:34.240Z,55.39
2019-05-12T10:54:37.705Z,53.91
2019-05-12T10:57:43.768Z,53.32
2019-05-12T11:00:47.480Z,54.73
2019-05-12T11:03:52.227Z,52.34
2019-05-12T11:06:56.041Z,54.14
2019-05-12T11:10:05.632Z,55.27
2019-05-12T11:13:08.456Z,54.88
2019-05-12T11:16:14.095Z,54.61
2019-05-12T11:19:16.834Z,53.92
2019-05-12T11:22:20.689Z,53.14
2019-05-12T11:25:24.814Z,53.00
2019-05-12T11:28:28.949Z,49.67
2019-05-12T11:31:33.444Z,52.33
2019-05-12T11:34:37.600Z,53.56
2019-05-12T11:37:41.408Z,50.02
2019-05-12T11:40:45.254Z,48.85
2019-05-12T11:43:49.154Z,50.41
2019-05-12T11:46:54.696Z,48.15
2019-05-12T11:50:03.893Z,51.09
2019-05-12T11:53:04.557Z,52.75
2019-05-12T11:56:09.377Z,56.21
2019-05-12T11:59:13.871Z,53.77
2019-05-12T12:02:20.148Z,52.44
2019-05-12T12:05:24.796Z,53.58
2019-05-12T12:08:35.656Z,50.27
2019-05-12T12:11:34.337Z,49.13
2019-05-12T12:14:40.170Z,50.03
2019-05-12T12:17:44.252Z,49.54
2019-05-12T12:20:48.843Z,48.68
2019-05-12T12:23:53.478Z,49.58
2019-05-12T12:26:57.525Z,51.58
2019-05-12T12:30:13.748Z,53.10
2019-05-12T12:33:06.934Z,51.64
2019-05-12T12:36:10.773Z,49.43
2019-05-12T12:39:14.778Z,49.16
2019-05-12T12:42:18.637Z,49.38
2019-05-12T12:45:40.232Z,49.17
2019-05-12T12:48:43.985Z,47.43
2019-05-12T12:51:47.918Z,49.37
2019-05-12T12:54:51.748Z,51.43
2019-05-12T12:57:55.598Z,51.40
2019-05-12T13:00:59.593Z,50.41
2019-05-12T13:04:06.330Z,48.57
2019-05-12T13:07:09.010Z,49.76
2019-05-12T13:10:14.287Z,49.13
2019-05-12T13:13:18.320Z,50.48
2019-05-12T13:16:23.846Z,52.52
2019-05-12T13:19:27.959Z,47.85
2019-05-12T13:22:33.731Z,52.00
2019-05-12T13:25:39.003Z,50.72
2019-05-12T13:28:45.445Z,46.50
2019-05-12T13:31:48.623Z,47.90
2019-05-12T13:34:52.461Z,46.08
2019-05-12T13:38:00.317Z,48.19
2019-05-12T13:41:04.245Z,48.58
2019-05-12T13:44:07.605Z,46.15
2019-05-12T13:47:13.970Z,47.18
2019-05-12T13:50:22.063Z,45.95
2019-05-12T13:53:24.323Z,44.30
2019-05-12T13:56:33.123Z,44.83
2019-05-12T13:59:34.167Z,44.51
2019-05-12T14:02:38.034Z,40.18
2019-05-12T14:05:50.255Z,41.95
2019-05-12T14:08:47.585Z,46.42
2019-05-12T14:11:53.708Z,45.35
2019-05-12T14:14:57.062Z,43.92
2019-05-12T14:18:03.278Z,42.12
2019-05-12T14:21:06.675Z,45.50
2019-05-12T14:24:10.499Z,46.32
2019-05-12T14:27:18.757Z,45.23
2019-05-12T14:30:20.109Z,45.19
2019-05-12T14:33:24.724Z,44.57
2019-05-12T14:36:31.943Z,42.74
2019-05-12T14:39:34.573Z,44.75
2019-05-12T14:42:39.899Z,41.73
2019-05-12T14:46:00.277Z,41.05
2019-05-12T14:49:03.597Z,44.02
2019-05-12T14:52:07.683Z,41.11
2019-05-12T14:55:13.647Z,38.46
2019-05-12T14:58:20.581Z,39.50
2019-05-12T15:01:23.854Z,38.75
2019-05-12T15:04:29.948Z,36.59
2019-05-12T15:07:33.921Z,37.66
2019-05-12T15:10:38.033Z,38.01
2019-05-12T15:13:43.703Z,35.83
2019-05-12T15:16:47.634Z,38.12
2019-05-12T15:19:51.557Z,38.28
2019-05-12T15:22:55.530Z,36.72
2019-05-12T15:25:59.440Z,35.39
2019-05-12T15:29:05.319Z,34.06
2019-05-12T15:32:08.966Z,34.22
2019-05-12T15:35:13.900Z,34.78
2019-05-12T15:38:17.819Z,34.77
2019-05-12T15:41:23.722Z,36.95
2019-05-12T15:44:31.759Z,37.41
2019-05-12T15:47:35.185Z,34.60
2019-05-12T15:50:38.559Z,36.46
2019-05-12T15:53:44.602Z,35.93
2019-05-12T15:56:48.301Z,38.69
2019-05-12T15:59:54.120Z,39.48
2019-05-12T16:02:57.727Z,39.94
2019-05-12T16:06:10.247Z,40.73
2019-05-12T16:09:08.995Z,40.97
2019-05-12T16:12:20.201Z,42.03
2019-05-12T16:15:19.477Z,44.09
2019-05-12T16:18:26.747Z,42.22
2019-05-12T16:21:29.048Z,41.86
2019-05-12T16:24:34.040Z,42.94
2019-05-12T16:27:38.639Z,43.78
2019-05-12T16:30:43.899Z,46.81
2019-05-12T16:33:52.827Z,48.29
2019-05-12T16:36:54.785Z,47.43
2019-05-12T16:39:58.782Z,45.05
2019-05-12T16:43:03.982Z,46.82
2019-05-12T16:46:07.891Z,47.36
2019-05-12T16:49:13.965Z,48.23
2019-05-12T16:52:17.383Z,49.69
2019-05-12T16:55:21.300Z,48.34
2019-05-12T16:58:33.317Z,49.02
2019-05-12T17:01:30.846Z,48.98
2019-05-12T17:04:34.707Z,49.69
2019-05-12T17:07:38.551Z,51.31
2019-05-12T17:10:49.700Z,51.82
2019-05-12T17:13:59.757Z,53.92
2019-05-12T17:16:54.330Z,52.75
2019-05-12T17:19:58.414Z,52.44
2019-05-12T17:23:03.501Z,53.21
2019-05-12T17:26:07.499Z,52.90
2019-05-12T17:29:13.505Z,53.40
2019-05-12T17:32:17.115Z,53.19
2019-05-12T17:35:29.297Z,54.24
2019-05-12T17:38:29.841Z,55.26
2019-05-12T17:41:40.541Z,56.84
2019-05-12T17:44:39.085Z,56.06
2019-05-12T17:47:44.541Z,55.17
2019-05-12T17:50:50.555Z,55.91
2019-05-12T17:53:54.990Z,55.92
2019-05-12T17:56:59.466Z,56.52
2019-05-12T18:00:08.620Z,57.19
2019-05-12T18:03:20.580Z,57.78
2019-05-12T18:06:14.621Z,58.80
2019-05-12T18:09:20.195Z,58.43
2019-05-12T18:12:26.757Z,58.67
2019-05-12T18:15:33.361Z,57.82
2019-05-12T18:18:38.077Z,57.27
2019-05-12T18:21:40.974Z,57.84
2019-05-12T18:24:49.431Z,55.07
2019-05-12T18:27:51.054Z,55.07
2019-05-12T18:30:54.823Z,55.87
2019-05-12T18:33:58.709Z,57.17
2019-05-12T18:37:02.616Z,58.94
2019-05-12T18:40:07.409Z,59.26
2019-05-12T18:43:11.319Z,59.96
2019-05-12T18:46:15.299Z,60.29
2019-05-12T18:49:19.118Z,60.84
2019-05-12T18:52:23.637Z,61.16
2019-05-12T18:55:29.130Z,62.07
2019-05-12T18:58:35.385Z,60.92
2019-05-12T19:01:39.453Z,61.87
2019-05-12T19:04:44.305Z,61.99
2019-05-12T19:07:48.381Z,62.70
2019-05-12T19:10:52.213Z,63.10
2019-05-12T19:13:57.193Z,63.23
2019-05-12T19:17:03.596Z,63.66
2019-05-12T19:20:07.139Z,63.93
2019-05-12T19:23:10.973Z,63.53
2019-05-12T19:26:14.856Z,64.03
2019-05-12T19:29:18.679Z,63.74
2019-05-12T19:32:27.951Z,64.22
2019-05-12T19:35:28.124Z,64.17
2019-05-12T19:38:34.413Z,65.15
2019-05-12T19:41:38.110Z,66.06
2019-05-12T19:44:43.890Z,65.98
2019-05-12T19:47:49.245Z,66.92
2019-05-12T19:50:56.907Z,67.46
2019-05-12T19:53:58.843Z,67.53
2019-05-12T19:57:02.776Z,67.08
2019-05-12T20:00:07.215Z,67.53
2019-05-12T20:03:13.703Z,67.99
2019-05-12T20:06:17.048Z,68.21
2019-05-12T20:09:21.090Z,67.99
2019-05-12T20:12:25.053Z,68.04
2019-05-12T20:15:30.244Z,69.05
2019-05-12T20:18:43.085Z,69.39
2019-05-12T20:21:40.517Z,69.85
2019-05-12T20:24:44.546Z,70.55
2019-05-12T20:27:48.483Z,70.93
2019-05-12T20:31:00.781Z,71.16
2019-05-12T20:34:04.433Z,71.97
2019-05-12T20:37:06.008Z,71.89
2019-05-12T20:40:09.488Z,71.63
2019-05-12T20:43:14.806Z,72.76
2019-05-12T20:46:25.734Z,72.67
2019-05-12T20:49:24.669Z,73.07
2019-05-12T20:52:28.587Z,72.67
2019-05-12T20:55:36.567Z,73.58
2019-05-12T20:58:43.534Z,73.82
2019-05-12T21:01:44.271Z,74.12
2019-05-12T21:05:00.025Z,73.46
2019-05-12T21:07:55.952Z,73.76
2019-05-12T21:10:59.297Z,74.43
2019-05-12T21:14:09.802Z,74.34
2019-05-12T21:17:14.462Z,74.59
2019-05-12T21:20:16.915Z,75.65
2019-05-12T21:23:20.628Z,76.34
2019-05-12T21:26:28.457Z,76.18
2019-05-12T21:29:30.183Z,76.12
2019-05-12T21:32:34.123Z,75.87
2019-05-12T21:35:40.677Z,76.66
2019-05-12T21:38:43.676Z,76.76
2019-05-12T21:41:52.087Z,76.90
2019-05-12T21:44:53.349Z,77.07
2019-05-12T21:47:57.164Z,76.93
2019-05-12T21:51:01.037Z,76.97
2019-05-12T21:54:06.580Z,77.32
2019-05-12T21:57:10.732Z,77.81
2019-05-12T22:00:24.011Z,77.90
2019-05-12T22:03:27.989Z,78.03
2019-05-12T22:06:34.065Z,78.39
2019-05-12T22:09:41.523Z,78.86
2019-05-12T22:12:44.068Z,78.06
2019-05-12T22:15:51.368Z,77.79
2019-05-12T22:18:58.632Z,77.36
2019-05-12T22:22:01.072Z,78.00
2019-05-12T22:25:09.668Z,78.26
2019-05-12T22:28:10.772Z,77.39
2019-05-12T22:31:14.820Z,76.75
2019-05-12T22:34:18.635Z,76.92
2019-05-12T22:37:23.973Z,77.17
2019-05-12T22:40:28.154Z,76.66
2019-05-12T22:43:40.846Z,77.09
2019-05-12T22:46:37.671Z,76.46
2019-05-12T22:49:41.505Z,76.64
2019-05-12T22:52:49.374Z,76.35
2019-05-12T22:55:53.293Z,76.55
2019-05-12T22:58:59.981Z,77.18
2019-05-12T23:02:04.362Z,77.26
2019-05-12T23:05:10.292Z,76.81
2019-05-12T23:08:14.253Z,77.57
2019-05-12T23:11:23.770Z,77.41
2019-05-12T23:14:25.219Z,77.74
2019-05-12T23:17:29.423Z,78.10
2019-05-12T23:20:35.699Z,77.62
2019-05-12T23:23:38.896Z,77.93
2019-05-12T23:26:47.785Z,77.08
2019-05-12T23:29:49.174Z,77.54
2019-05-12T23:32:53.228Z,76.77
2019-05-12T23:35:57.160Z,76.87
2019-05-12T23:39:02.825Z,77.29
2019-05-12T23:42:06.759Z,76.96
2019-05-12T23:45:10.948Z,76.67
2019-05-12T23:48:14.968Z,76.99
2019-05-12T23:51:18.986Z,77.11
2019-05-12T23:54:23.835Z,77.24
2019-05-12T23:57:27.857Z,77.21
